Bryan's Hourly Summary for Monday, May 14, 2018
Hour Temp
(f)
RH
(%)
Solar Rad.
(MJ/m2)
Rainfall
(in)
Wind
(mph)
5/14/2018 12:00 AM 78 70 0 0 6.28
5/14/2018 1:00 AM 76 77 0 0 6.91
5/14/2018 2:00 AM 74 82 0 0 4.87
5/14/2018 3:00 AM 74 87 0 0 4.33
5/14/2018 4:00 AM 74 86 0 0 5.82
5/14/2018 5:00 AM 74 85 0 0 4.06
5/14/2018 6:00 AM 73 88 0 0 1.8
5/14/2018 7:00 AM 73 90 0.05 0 2.4
5/14/2018 8:00 AM 74 85 0.59 0 4.29
5/14/2018 9:00 AM 76 78 1.04 0 5.58
5/14/2018 10:00 AM 77 75 1.05 0 6.13
5/14/2018 11:00 AM 79 67 1.95 0 5.68
5/14/2018 12:00 PM 81 60 2.13 0 6.05
5/14/2018 1:00 PM 84 50 3.04 0 5.92
5/14/2018 2:00 PM 84 48 2.59 0 7.08
5/14/2018 3:00 PM 86 43 3.08 0 6.43
5/14/2018 4:00 PM 87 41 2.85 0 6.58
5/14/2018 5:00 PM 88 43 2.73 0 6.33
5/14/2018 6:00 PM 87 43 1.39 0 6
5/14/2018 7:00 PM 86 44 0.97 0 4.68
5/14/2018 8:00 PM 84 48 0.19 0 4.33
5/14/2018 9:00 PM 82 55 0 0 1.93
5/14/2018 10:00 PM 81 59 0 0 4.56
5/14/2018 11:00 PM 79 59 0 0 5.14
Data Summary 79 65 23.65 0.00 5.13